CFG7KY LEIB-EDDF
Flight info
| Callsign | CFG7KY |
|---|---|
| Flight time | 1h 54m |
| Altitude | 34000 |
| Route | KABRE DCT ELTAN N853 LUMAS DCT MAXIR DCT LUSOL DCT BODRU DCT OKTET DCT IRMAR DCT KINES DCT VANAS DCT ESOKO DCT GODRA/N0458F350 DCT LADOL/N0458F340 T163 EMPAX EMPAX5B |
| Aircraft | A321/M-SDE3FGHIRWY/LB1 |
Departure
| Time | 2026-05-05 14:07 |
|---|---|
| Airport | Ibiza Airport (LEIB) |
Arrival
| Time | 2026-05-05 16:01 |
|---|---|
| Airport | Frankfurt Main Airport (EDDF) |
| Time | Latitude | Longitude | Altitude | Speed | Heading |
|---|---|---|---|---|---|
| 2026-05-05 13:29 | 38.87492 | 1.37094 | 9 ft | 0 kts | 332° |
| 2026-05-05 14:02 | 38.87503 | 1.37087 | 8 ft | 6 kts | 332° |
| 2026-05-05 14:02 | 38.87554 | 1.37084 | 8 ft | 8 kts | 45° |
| 2026-05-05 14:02 | 38.87595 | 1.37182 | 9 ft | 18 kts | 62° |
| 2026-05-05 14:02 | 38.87657 | 1.37332 | 9 ft | 19 kts | 62° |
| 2026-05-05 14:03 | 38.87696 | 1.37464 | 8 ft | 13 kts | 102° |
| 2026-05-05 14:03 | 38.87629 | 1.37525 | 8 ft | 11 kts | 152° |
| 2026-05-05 14:03 | 38.87584 | 1.37586 | 9 ft | 9 kts | 83° |
| 2026-05-05 14:03 | 38.87621 | 1.37676 | 9 ft | 16 kts | 61° |
| 2026-05-05 14:04 | 38.87692 | 1.37844 | 9 ft | 25 kts | 62° |
| 2026-05-05 14:04 | 38.87772 | 1.38037 | 9 ft | 24 kts | 62° |
| 2026-05-05 14:04 | 38.87847 | 1.38218 | 9 ft | 22 kts | 62° |
| 2026-05-05 14:04 | 38.87917 | 1.38388 | 9 ft | 21 kts | 62° |
| 2026-05-05 14:05 | 38.87983 | 1.38545 | 9 ft | 18 kts | 63° |
| 2026-05-05 14:05 | 38.87983 | 1.38643 | 9 ft | 10 kts | 144° |
| 2026-05-05 14:05 | 38.87931 | 1.38679 | 11 ft | 7 kts | 155° |
| 2026-05-05 14:05 | 38.87873 | 1.38707 | 11 ft | 9 kts | 176° |
| 2026-05-05 14:06 | 38.87847 | 1.38672 | 11 ft | 0 kts | 242° |
| 2026-05-05 14:06 | 38.87838 | 1.38651 | 11 ft | 21 kts | 242° |
| 2026-05-05 14:06 | 38.87653 | 1.38202 | 14 ft | 90 kts | 242° |
| 2026-05-05 14:06 | 38.87267 | 1.37270 | 14 ft | 144 kts | 242° |
| 2026-05-05 14:07 | 38.86743 | 1.35994 | 223 ft | 167 kts | 241° |
| 2026-05-05 14:07 | 38.86062 | 1.34822 | 949 ft | 164 kts | 231° |
| 2026-05-05 14:07 | 38.85300 | 1.33739 | 1671 ft | 164 kts | 230° |
| 2026-05-05 14:07 | 38.84508 | 1.32634 | 2085 ft | 176 kts | 230° |
| 2026-05-05 14:08 | 38.83637 | 1.31409 | 2233 ft | 196 kts | 230° |
| 2026-05-05 14:08 | 38.82676 | 1.30061 | 2411 ft | 212 kts | 230° |
| 2026-05-05 14:08 | 38.81663 | 1.28640 | 2774 ft | 218 kts | 229° |
| 2026-05-05 14:08 | 38.80417 | 1.27506 | 3202 ft | 226 kts | 201° |
| 2026-05-05 14:09 | 38.78821 | 1.27322 | 3540 ft | 244 kts | 173° |
| 2026-05-05 14:09 | 38.77060 | 1.27697 | 3813 ft | 266 kts | 172° |
| 2026-05-05 14:09 | 38.75213 | 1.28135 | 4502 ft | 272 kts | 171° |
| 2026-05-05 14:09 | 38.73353 | 1.28588 | 5276 ft | 272 kts | 172° |
| 2026-05-05 14:10 | 38.71488 | 1.29041 | 6058 ft | 273 kts | 173° |
| 2026-05-05 14:10 | 38.69614 | 1.29489 | 6788 ft | 275 kts | 173° |
| 2026-05-05 14:10 | 38.67728 | 1.29933 | 7487 ft | 277 kts | 173° |
| 2026-05-05 14:10 | 38.65824 | 1.30377 | 8203 ft | 279 kts | 174° |
| 2026-05-05 14:11 | 38.63906 | 1.30822 | 8898 ft | 281 kts | 174° |
| 2026-05-05 14:11 | 38.61981 | 1.31333 | 9579 ft | 286 kts | 166° |
| 2026-05-05 14:11 | 38.60184 | 1.32508 | 10189 ft | 297 kts | 147° |
| 2026-05-05 14:11 | 38.58742 | 1.34474 | 10642 ft | 315 kts | 127° |
| 2026-05-05 14:12 | 38.57878 | 1.37165 | 10774 ft | 343 kts | 104° |
| 2026-05-05 14:12 | 38.57488 | 1.40266 | 10903 ft | 364 kts | 101° |
| 2026-05-05 14:12 | 38.57093 | 1.43543 | 11024 ft | 383 kts | 101° |
| 2026-05-05 14:12 | 38.56671 | 1.46980 | 11139 ft | 400 kts | 101° |
| 2026-05-05 14:13 | 38.56220 | 1.50562 | 11267 ft | 416 kts | 102° |
| 2026-05-05 14:13 | 38.55756 | 1.54263 | 11546 ft | 426 kts | 100° |
| 2026-05-05 14:13 | 38.55671 | 1.58067 | 12012 ft | 433 kts | 86° |
| 2026-05-05 14:13 | 38.56250 | 1.61862 | 12480 ft | 438 kts | 73° |
| 2026-05-05 14:14 | 38.57482 | 1.65441 | 12933 ft | 443 kts | 60° |
| 2026-05-05 14:14 | 38.59012 | 1.68869 | 13400 ft | 446 kts | 60° |
| 2026-05-05 14:14 | 38.60538 | 1.72276 | 13842 ft | 449 kts | 60° |
| 2026-05-05 14:14 | 38.62115 | 1.75805 | 14257 ft | 453 kts | 60° |
| 2026-05-05 14:15 | 38.63661 | 1.79274 | 14652 ft | 456 kts | 60° |
| 2026-05-05 14:15 | 38.65234 | 1.82811 | 15053 ft | 460 kts | 60° |
| 2026-05-05 14:15 | 38.66819 | 1.86385 | 15443 ft | 463 kts | 60° |
| 2026-05-05 14:15 | 38.68412 | 1.89981 | 15822 ft | 467 kts | 60° |
| 2026-05-05 14:16 | 38.70016 | 1.93609 | 16220 ft | 470 kts | 60° |
| 2026-05-05 14:16 | 38.71629 | 1.97272 | 16616 ft | 473 kts | 60° |
| 2026-05-05 14:16 | 38.73248 | 2.00955 | 17024 ft | 476 kts | 60° |
| 2026-05-05 14:16 | 38.74881 | 2.04668 | 17414 ft | 480 kts | 60° |
| 2026-05-05 14:17 | 38.76526 | 2.08405 | 17808 ft | 483 kts | 59° |
| 2026-05-05 14:17 | 38.78183 | 2.12168 | 18199 ft | 486 kts | 59° |
| 2026-05-05 14:17 | 38.79850 | 2.15957 | 18516 ft | 490 kts | 59° |
| 2026-05-05 14:17 | 38.81529 | 2.19773 | 18851 ft | 493 kts | 60° |
| 2026-05-05 14:18 | 38.83216 | 2.23619 | 19180 ft | 496 kts | 60° |
| 2026-05-05 14:18 | 38.84885 | 2.27438 | 19484 ft | 499 kts | 60° |
| 2026-05-05 14:18 | 38.86584 | 2.31329 | 19807 ft | 501 kts | 60° |
| 2026-05-05 14:18 | 38.88293 | 2.35245 | 20152 ft | 504 kts | 60° |
| 2026-05-05 14:19 | 38.90032 | 2.39240 | 20461 ft | 508 kts | 60° |
| 2026-05-05 14:19 | 38.91734 | 2.43157 | 20747 ft | 511 kts | 60° |
| 2026-05-05 14:19 | 38.93468 | 2.47149 | 21038 ft | 514 kts | 60° |
| 2026-05-05 14:19 | 38.95210 | 2.51171 | 21353 ft | 516 kts | 60° |
| 2026-05-05 14:20 | 38.96959 | 2.55210 | 21642 ft | 519 kts | 60° |
| 2026-05-05 14:20 | 38.98720 | 2.59277 | 21928 ft | 522 kts | 60° |
| 2026-05-05 14:20 | 39.00488 | 2.63362 | 22215 ft | 524 kts | 60° |
| 2026-05-05 14:20 | 39.02266 | 2.67472 | 22478 ft | 527 kts | 61° |
| 2026-05-05 14:21 | 39.04047 | 2.71607 | 22792 ft | 529 kts | 61° |
| 2026-05-05 14:21 | 39.05831 | 2.75755 | 23092 ft | 532 kts | 61° |
| 2026-05-05 14:21 | 39.07625 | 2.79934 | 23385 ft | 534 kts | 61° |
| 2026-05-05 14:21 | 39.09424 | 2.84128 | 23641 ft | 537 kts | 61° |
| 2026-05-05 14:22 | 39.11236 | 2.88352 | 23870 ft | 539 kts | 61° |
| 2026-05-05 14:22 | 39.13043 | 2.92576 | 24202 ft | 538 kts | 61° |
| 2026-05-05 14:22 | 39.14845 | 2.96801 | 24554 ft | 538 kts | 62° |
| 2026-05-05 14:22 | 39.16603 | 3.01049 | 24895 ft | 537 kts | 63° |
| 2026-05-05 14:23 | 39.18307 | 3.05319 | 25216 ft | 536 kts | 64° |
| 2026-05-05 14:23 | 39.19983 | 3.09616 | 25562 ft | 536 kts | 64° |
| 2026-05-05 14:23 | 39.21645 | 3.13908 | 25899 ft | 535 kts | 64° |
| 2026-05-05 14:23 | 39.23311 | 3.18204 | 26228 ft | 535 kts | 64° |
| 2026-05-05 14:24 | 39.24980 | 3.22483 | 26579 ft | 534 kts | 64° |
| 2026-05-05 14:24 | 39.26659 | 3.26754 | 26907 ft | 534 kts | 64° |
| 2026-05-05 14:24 | 39.28343 | 3.31019 | 27246 ft | 533 kts | 64° |
| 2026-05-05 14:24 | 39.30029 | 3.35278 | 27575 ft | 533 kts | 64° |
| 2026-05-05 14:25 | 39.31713 | 3.39542 | 27951 ft | 532 kts | 64° |
| 2026-05-05 14:25 | 39.33388 | 3.43800 | 28290 ft | 532 kts | 64° |
| 2026-05-05 14:25 | 39.34494 | 3.46626 | 28512 ft | 531 kts | 64° |
| 2026-05-05 14:25 | 39.36696 | 3.52278 | 28951 ft | 531 kts | 65° |
| 2026-05-05 14:26 | 39.38352 | 3.56535 | 29276 ft | 530 kts | 65° |
| 2026-05-05 14:26 | 39.40008 | 3.60790 | 29605 ft | 529 kts | 65° |
| 2026-05-05 14:26 | 39.41127 | 3.63662 | 29823 ft | 529 kts | 65° |
| 2026-05-05 14:26 | 39.42781 | 3.67909 | 30119 ft | 529 kts | 65° |
| 2026-05-05 14:27 | 39.44431 | 3.72154 | 30391 ft | 528 kts | 65° |
| 2026-05-05 14:27 | 39.46079 | 3.76401 | 30672 ft | 527 kts | 65° |
| 2026-05-05 14:27 | 39.47720 | 3.80635 | 30946 ft | 527 kts | 65° |
| 2026-05-05 14:27 | 39.49363 | 3.84882 | 31201 ft | 527 kts | 65° |
| 2026-05-05 14:28 | 39.51000 | 3.89119 | 31467 ft | 526 kts | 65° |
| 2026-05-05 14:28 | 39.52634 | 3.93352 | 31773 ft | 526 kts | 65° |
| 2026-05-05 14:28 | 39.54268 | 3.97593 | 32040 ft | 526 kts | 65° |
| 2026-05-05 14:28 | 39.55896 | 4.01832 | 32320 ft | 525 kts | 65° |
| 2026-05-05 14:29 | 39.57631 | 4.05994 | 32598 ft | 526 kts | 58° |
| 2026-05-05 14:29 | 39.59832 | 4.09766 | 32871 ft | 525 kts | 47° |
| 2026-05-05 14:29 | 39.62478 | 4.13017 | 33139 ft | 523 kts | 36° |
| 2026-05-05 14:29 | 39.65479 | 4.15639 | 33400 ft | 519 kts | 25° |
| 2026-05-05 14:30 | 39.68741 | 4.17584 | 33661 ft | 513 kts | 15° |
| 2026-05-05 14:30 | 39.72147 | 4.18823 | 33885 ft | 506 kts | 5° |
| 2026-05-05 14:30 | 39.79104 | 4.20217 | 33950 ft | 506 kts | 2° |
| 2026-05-05 14:31 | 39.86070 | 4.21570 | 33947 ft | 506 kts | 2° |
| 2026-05-05 14:31 | 39.92981 | 4.23063 | 33948 ft | 507 kts | 5° |
| 2026-05-05 14:32 | 39.99939 | 4.24760 | 33934 ft | 510 kts | 5° |
| 2026-05-05 14:32 | 40.06926 | 4.26471 | 33932 ft | 511 kts | 5° |
| 2026-05-05 14:33 | 40.13925 | 4.28122 | 33928 ft | 511 kts | 4° |
| 2026-05-05 14:33 | 40.20925 | 4.29760 | 33935 ft | 511 kts | 4° |
| 2026-05-05 14:34 | 40.27941 | 4.31402 | 33927 ft | 512 kts | 4° |
| 2026-05-05 14:34 | 40.34953 | 4.33066 | 33921 ft | 512 kts | 4° |
| 2026-05-05 14:35 | 40.41972 | 4.34748 | 33949 ft | 513 kts | 4° |
| 2026-05-05 14:35 | 40.49003 | 4.36434 | 33924 ft | 514 kts | 4° |
| 2026-05-05 14:36 | 40.55997 | 4.38099 | 33919 ft | 514 kts | 4° |
| 2026-05-05 14:36 | 40.63044 | 4.39773 | 33916 ft | 515 kts | 4° |
| 2026-05-05 14:37 | 40.70093 | 4.41459 | 33916 ft | 515 kts | 4° |
| 2026-05-05 14:37 | 40.77146 | 4.43159 | 33917 ft | 515 kts | 4° |
| 2026-05-05 14:38 | 40.84198 | 4.44850 | 33940 ft | 515 kts | 4° |
| 2026-05-05 14:38 | 40.91270 | 4.46544 | 33931 ft | 516 kts | 4° |
| 2026-05-05 14:39 | 40.98289 | 4.48249 | 33920 ft | 516 kts | 4° |
| 2026-05-05 14:39 | 41.05398 | 4.49988 | 33955 ft | 516 kts | 4° |
| 2026-05-05 14:40 | 41.12467 | 4.51714 | 33929 ft | 517 kts | 4° |
| 2026-05-05 14:40 | 41.19498 | 4.53425 | 33917 ft | 517 kts | 4° |
| 2026-05-05 14:41 | 41.26585 | 4.55154 | 33940 ft | 518 kts | 4° |
| 2026-05-05 14:41 | 41.33674 | 4.56891 | 33919 ft | 518 kts | 4° |
| 2026-05-05 14:42 | 41.40762 | 4.58635 | 33899 ft | 518 kts | 4° |
| 2026-05-05 14:42 | 41.47850 | 4.60369 | 33938 ft | 518 kts | 4° |
| 2026-05-05 14:43 | 41.54939 | 4.62114 | 33917 ft | 518 kts | 4° |
| 2026-05-05 14:43 | 41.62036 | 4.63873 | 33911 ft | 518 kts | 4° |
| 2026-05-05 14:44 | 41.69135 | 4.65645 | 33948 ft | 520 kts | 6° |
| 2026-05-05 14:44 | 41.76026 | 4.68903 | 33921 ft | 533 kts | 24° |
| 2026-05-05 14:45 | 41.82434 | 4.73997 | 33911 ft | 536 kts | 28° |
| 2026-05-05 14:45 | 41.88834 | 4.79138 | 33933 ft | 536 kts | 27° |
| 2026-05-05 14:46 | 41.95250 | 4.84282 | 33919 ft | 537 kts | 27° |
| 2026-05-05 14:46 | 42.01669 | 4.89467 | 33920 ft | 538 kts | 28° |
| 2026-05-05 14:47 | 42.08035 | 4.94654 | 33918 ft | 539 kts | 28° |
| 2026-05-05 14:47 | 42.14457 | 4.99871 | 33918 ft | 539 kts | 27° |
| 2026-05-05 14:48 | 42.20927 | 5.05123 | 33922 ft | 540 kts | 28° |
| 2026-05-05 14:48 | 42.27315 | 5.10332 | 33928 ft | 540 kts | 28° |
| 2026-05-05 14:49 | 42.33747 | 5.15592 | 33944 ft | 541 kts | 28° |
| 2026-05-05 14:49 | 42.40185 | 5.20864 | 33948 ft | 541 kts | 28° |
| 2026-05-05 14:50 | 42.46618 | 5.26156 | 33942 ft | 541 kts | 28° |
| 2026-05-05 14:50 | 42.53046 | 5.31466 | 33963 ft | 541 kts | 28° |
| 2026-05-05 14:51 | 42.59470 | 5.36779 | 33921 ft | 540 kts | 28° |
| 2026-05-05 14:51 | 42.65888 | 5.42090 | 33941 ft | 540 kts | 28° |
| 2026-05-05 14:52 | 42.72300 | 5.47412 | 33932 ft | 540 kts | 28° |
| 2026-05-05 14:52 | 42.78711 | 5.52745 | 33934 ft | 540 kts | 28° |
| 2026-05-05 14:53 | 42.85117 | 5.58099 | 33937 ft | 541 kts | 28° |
| 2026-05-05 14:53 | 42.91527 | 5.63466 | 33968 ft | 541 kts | 28° |
| 2026-05-05 14:54 | 42.97944 | 5.68841 | 33952 ft | 540 kts | 28° |
| 2026-05-05 14:54 | 43.04345 | 5.74214 | 33930 ft | 540 kts | 28° |
| 2026-05-05 14:55 | 43.10696 | 5.79561 | 33975 ft | 539 kts | 28° |
| 2026-05-05 14:55 | 43.17125 | 5.84996 | 33967 ft | 540 kts | 28° |
| 2026-05-05 14:56 | 43.23468 | 5.90374 | 33950 ft | 540 kts | 28° |
| 2026-05-05 14:56 | 43.29851 | 5.95799 | 33965 ft | 539 kts | 28° |
| 2026-05-05 14:57 | 43.36306 | 6.01022 | 33943 ft | 535 kts | 20° |
| 2026-05-05 14:57 | 43.43262 | 6.04184 | 33931 ft | 520 kts | 3° |
| 2026-05-05 14:58 | 43.50375 | 6.05148 | 33953 ft | 512 kts | 356° |
| 2026-05-05 14:58 | 43.57478 | 6.05855 | 33944 ft | 512 kts | 356° |
| 2026-05-05 14:59 | 43.64578 | 6.06581 | 33930 ft | 511 kts | 356° |
| 2026-05-05 14:59 | 43.71673 | 6.07303 | 33949 ft | 511 kts | 357° |
| 2026-05-05 15:00 | 43.77555 | 6.08709 | 33948 ft | 523 kts | 11° |
| 2026-05-05 15:00 | 43.82114 | 6.11208 | 33918 ft | 531 kts | 22° |
| 2026-05-05 15:00 | 43.85427 | 6.13480 | 33926 ft | 531 kts | 22° |
| 2026-05-05 15:01 | 43.92055 | 6.18013 | 33963 ft | 531 kts | 22° |
| 2026-05-05 15:01 | 43.98675 | 6.22532 | 33966 ft | 529 kts | 22° |
| 2026-05-05 15:02 | 44.05280 | 6.27051 | 33965 ft | 529 kts | 22° |
| 2026-05-05 15:02 | 44.11865 | 6.31581 | 33979 ft | 527 kts | 22° |
| 2026-05-05 15:03 | 44.18426 | 6.36104 | 33972 ft | 525 kts | 22° |
| 2026-05-05 15:03 | 44.24929 | 6.40585 | 33982 ft | 524 kts | 22° |
| 2026-05-05 15:04 | 44.31458 | 6.45092 | 33972 ft | 523 kts | 22° |
| 2026-05-05 15:04 | 44.37980 | 6.49611 | 33936 ft | 523 kts | 22° |
| 2026-05-05 15:05 | 44.47752 | 6.56418 | 33964 ft | 523 kts | 23° |
| 2026-05-05 15:06 | 44.54257 | 6.60957 | 33953 ft | 522 kts | 22° |
| 2026-05-05 15:06 | 44.60757 | 6.65502 | 33938 ft | 522 kts | 23° |
| 2026-05-05 15:07 | 44.67248 | 6.70055 | 33953 ft | 522 kts | 22° |
| 2026-05-05 15:07 | 44.73740 | 6.74623 | 33954 ft | 522 kts | 22° |
| 2026-05-05 15:08 | 44.80515 | 6.77910 | 33971 ft | 510 kts | 5° |
| 2026-05-05 15:08 | 44.87472 | 6.78573 | 33945 ft | 494 kts | 350° |
| 2026-05-05 15:09 | 44.94360 | 6.78115 | 33944 ft | 495 kts | 350° |
| 2026-05-05 15:09 | 45.01239 | 6.77648 | 33953 ft | 496 kts | 350° |
| 2026-05-05 15:10 | 45.08140 | 6.77195 | 33967 ft | 496 kts | 350° |
| 2026-05-05 15:10 | 45.14995 | 6.76746 | 33945 ft | 496 kts | 350° |
| 2026-05-05 15:11 | 45.21885 | 6.76287 | 33956 ft | 496 kts | 349° |
| 2026-05-05 15:11 | 45.28780 | 6.75821 | 33950 ft | 496 kts | 349° |
| 2026-05-05 15:12 | 45.35675 | 6.75361 | 33943 ft | 496 kts | 350° |
| 2026-05-05 15:12 | 45.41433 | 6.75205 | 33944 ft | 503 kts | 358° |
| 2026-05-05 15:13 | 45.49480 | 6.78047 | 33941 ft | 520 kts | 20° |
| 2026-05-05 15:13 | 45.54768 | 6.82193 | 33932 ft | 523 kts | 27° |
| 2026-05-05 15:14 | 45.61068 | 6.87417 | 33954 ft | 523 kts | 27° |
| 2026-05-05 15:14 | 45.67357 | 6.92629 | 33954 ft | 522 kts | 27° |
| 2026-05-05 15:15 | 45.73631 | 6.97872 | 33963 ft | 522 kts | 27° |
| 2026-05-05 15:15 | 45.79898 | 7.03123 | 33990 ft | 521 kts | 27° |
| 2026-05-05 15:16 | 45.86140 | 7.08360 | 33979 ft | 518 kts | 28° |
| 2026-05-05 15:16 | 45.92354 | 7.13591 | 33934 ft | 518 kts | 28° |
| 2026-05-05 15:17 | 45.98577 | 7.18848 | 33916 ft | 519 kts | 28° |
| 2026-05-05 15:17 | 46.04807 | 7.24122 | 33918 ft | 520 kts | 28° |
| 2026-05-05 15:18 | 46.11046 | 7.29433 | 33910 ft | 520 kts | 28° |
| 2026-05-05 15:18 | 46.17233 | 7.34702 | 33933 ft | 520 kts | 28° |
| 2026-05-05 15:19 | 46.23450 | 7.40002 | 33933 ft | 518 kts | 28° |
| 2026-05-05 15:19 | 46.29653 | 7.45305 | 33934 ft | 518 kts | 28° |
| 2026-05-05 15:20 | 46.35846 | 7.50627 | 33932 ft | 516 kts | 29° |
| 2026-05-05 15:20 | 46.41996 | 7.55922 | 33922 ft | 513 kts | 28° |
| 2026-05-05 15:21 | 46.48114 | 7.61206 | 33921 ft | 511 kts | 29° |
| 2026-05-05 15:21 | 46.54226 | 7.66489 | 33916 ft | 510 kts | 29° |
| 2026-05-05 15:22 | 46.60312 | 7.71763 | 33893 ft | 509 kts | 28° |
| 2026-05-05 15:22 | 46.66524 | 7.76700 | 33884 ft | 508 kts | 25° |
| 2026-05-05 15:23 | 46.72831 | 7.81348 | 33879 ft | 507 kts | 25° |
| 2026-05-05 15:23 | 46.79109 | 7.86035 | 33886 ft | 507 kts | 26° |
| 2026-05-05 15:24 | 46.85297 | 7.90822 | 33883 ft | 506 kts | 26° |
| 2026-05-05 15:24 | 46.91499 | 7.95677 | 33880 ft | 505 kts | 27° |
| 2026-05-05 15:25 | 46.97680 | 8.00494 | 33889 ft | 502 kts | 26° |
| 2026-05-05 15:25 | 47.03851 | 8.05279 | 33883 ft | 500 kts | 26° |
| 2026-05-05 15:26 | 47.09995 | 8.10060 | 33889 ft | 499 kts | 26° |
| 2026-05-05 15:26 | 47.16114 | 8.14845 | 33884 ft | 497 kts | 27° |
| 2026-05-05 15:27 | 47.22206 | 8.19629 | 33876 ft | 495 kts | 27° |
| 2026-05-05 15:27 | 47.28284 | 8.24403 | 33870 ft | 495 kts | 27° |
| 2026-05-05 15:28 | 47.34380 | 8.29202 | 33858 ft | 500 kts | 28° |
| 2026-05-05 15:28 | 47.40534 | 8.34066 | 33841 ft | 503 kts | 27° |
| 2026-05-05 15:29 | 47.46729 | 8.38983 | 33865 ft | 507 kts | 27° |
| 2026-05-05 15:29 | 47.52935 | 8.43905 | 33862 ft | 504 kts | 28° |
| 2026-05-05 15:30 | 47.59102 | 8.48810 | 33860 ft | 503 kts | 28° |
| 2026-05-05 15:30 | 47.65223 | 8.53704 | 33864 ft | 503 kts | 28° |
| 2026-05-05 15:31 | 47.71391 | 8.58649 | 33879 ft | 503 kts | 28° |
| 2026-05-05 15:31 | 47.77544 | 8.63579 | 33882 ft | 502 kts | 28° |
| 2026-05-05 15:32 | 47.83679 | 8.68515 | 33880 ft | 501 kts | 28° |
| 2026-05-05 15:32 | 47.89802 | 8.73467 | 33870 ft | 500 kts | 29° |
| 2026-05-05 15:33 | 47.95910 | 8.78409 | 33880 ft | 499 kts | 29° |
| 2026-05-05 15:33 | 48.02001 | 8.83358 | 33881 ft | 497 kts | 29° |
| 2026-05-05 15:34 | 48.08076 | 8.88300 | 33877 ft | 496 kts | 29° |
| 2026-05-05 15:34 | 48.14154 | 8.93160 | 33878 ft | 495 kts | 25° |
| 2026-05-05 15:35 | 48.20760 | 8.95961 | 33875 ft | 495 kts | 6° |
| 2026-05-05 15:35 | 48.27614 | 8.96981 | 33871 ft | 494 kts | 6° |
| 2026-05-05 15:36 | 48.34451 | 8.98018 | 33865 ft | 494 kts | 6° |
| 2026-05-05 15:36 | 48.41273 | 8.99061 | 33446 ft | 490 kts | 6° |
| 2026-05-05 15:36 | 48.44672 | 8.99582 | 32477 ft | 493 kts | 6° |
| 2026-05-05 15:37 | 48.48092 | 9.00109 | 31597 ft | 494 kts | 6° |
| 2026-05-05 15:37 | 48.51523 | 9.00634 | 30732 ft | 495 kts | 6° |
| 2026-05-05 15:37 | 48.54967 | 9.01158 | 29663 ft | 500 kts | 6° |
| 2026-05-05 15:37 | 48.58406 | 9.01678 | 28780 ft | 497 kts | 6° |
| 2026-05-05 15:38 | 48.61862 | 9.02201 | 27910 ft | 496 kts | 6° |
| 2026-05-05 15:38 | 48.65229 | 9.02770 | 27338 ft | 490 kts | 7° |
| 2026-05-05 15:38 | 48.68588 | 9.03486 | 26694 ft | 485 kts | 9° |
| 2026-05-05 15:38 | 48.71906 | 9.04306 | 26070 ft | 481 kts | 10° |
| 2026-05-05 15:39 | 48.75189 | 9.05175 | 25450 ft | 476 kts | 11° |
| 2026-05-05 15:39 | 48.78431 | 9.06037 | 24849 ft | 471 kts | 10° |
| 2026-05-05 15:39 | 48.81651 | 9.06869 | 24249 ft | 467 kts | 10° |
| 2026-05-05 15:39 | 48.84846 | 9.07664 | 23646 ft | 464 kts | 9° |
| 2026-05-05 15:40 | 48.88021 | 9.08423 | 23005 ft | 460 kts | 9° |
| 2026-05-05 15:40 | 48.91176 | 9.09057 | 22446 ft | 453 kts | 6° |
| 2026-05-05 15:40 | 48.94292 | 9.09533 | 21908 ft | 447 kts | 5° |
| 2026-05-05 15:40 | 48.97368 | 9.09916 | 21400 ft | 440 kts | 4° |
| 2026-05-05 15:41 | 49.00405 | 9.10263 | 20902 ft | 435 kts | 4° |
| 2026-05-05 15:41 | 49.03417 | 9.10616 | 20376 ft | 432 kts | 4° |
| 2026-05-05 15:41 | 49.06406 | 9.10993 | 19834 ft | 429 kts | 5° |
| 2026-05-05 15:41 | 49.09373 | 9.11400 | 19300 ft | 427 kts | 5° |
| 2026-05-05 15:42 | 49.12317 | 9.11827 | 18767 ft | 425 kts | 5° |
| 2026-05-05 15:42 | 49.15251 | 9.12261 | 18236 ft | 421 kts | 5° |
| 2026-05-05 15:42 | 49.18151 | 9.12685 | 17669 ft | 417 kts | 5° |
| 2026-05-05 15:42 | 49.21018 | 9.13101 | 17158 ft | 411 kts | 5° |
| 2026-05-05 15:43 | 49.23843 | 9.13514 | 16651 ft | 406 kts | 5° |
| 2026-05-05 15:43 | 49.26606 | 9.13913 | 16152 ft | 402 kts | 5° |
| 2026-05-05 15:43 | 49.29363 | 9.14510 | 15634 ft | 400 kts | 12° |
| 2026-05-05 15:43 | 49.32075 | 9.15470 | 15085 ft | 400 kts | 13° |
| 2026-05-05 15:44 | 49.34782 | 9.16433 | 14535 ft | 399 kts | 13° |
| 2026-05-05 15:44 | 49.37483 | 9.17392 | 13995 ft | 398 kts | 12° |
| 2026-05-05 15:44 | 49.40166 | 9.18343 | 13531 ft | 394 kts | 13° |
| 2026-05-05 15:44 | 49.42823 | 9.19283 | 13023 ft | 390 kts | 13° |
| 2026-05-05 15:45 | 49.45456 | 9.20215 | 12493 ft | 387 kts | 13° |
| 2026-05-05 15:45 | 49.48069 | 9.21143 | 11965 ft | 384 kts | 13° |
| 2026-05-05 15:45 | 49.50658 | 9.22064 | 11449 ft | 381 kts | 13° |
| 2026-05-05 15:45 | 49.53233 | 9.22982 | 10942 ft | 378 kts | 13° |
| 2026-05-05 15:46 | 49.55780 | 9.23891 | 10430 ft | 375 kts | 13° |
| 2026-05-05 15:46 | 49.58310 | 9.24794 | 9976 ft | 371 kts | 13° |
| 2026-05-05 15:46 | 49.60796 | 9.25684 | 9814 ft | 363 kts | 13° |
| 2026-05-05 15:46 | 49.63247 | 9.26567 | 9837 ft | 361 kts | 14° |
| 2026-05-05 15:47 | 49.65692 | 9.27446 | 9839 ft | 362 kts | 13° |
| 2026-05-05 15:47 | 49.67319 | 9.28028 | 9841 ft | 362 kts | 13° |
| 2026-05-05 15:47 | 49.70600 | 9.29201 | 9838 ft | 362 kts | 13° |
| 2026-05-05 15:47 | 49.73052 | 9.30082 | 9840 ft | 362 kts | 13° |
| 2026-05-05 15:48 | 49.75509 | 9.30965 | 9841 ft | 362 kts | 13° |
| 2026-05-05 15:48 | 49.77970 | 9.31815 | 9837 ft | 362 kts | 9° |
| 2026-05-05 15:48 | 49.80470 | 9.31897 | 9617 ft | 355 kts | 355° |
| 2026-05-05 15:48 | 49.82852 | 9.31570 | 9478 ft | 332 kts | 354° |
| 2026-05-05 15:49 | 49.85080 | 9.31232 | 9331 ft | 312 kts | 354° |
| 2026-05-05 15:49 | 49.87193 | 9.30899 | 9054 ft | 301 kts | 354° |
| 2026-05-05 15:49 | 49.89258 | 9.30580 | 8824 ft | 297 kts | 354° |
| 2026-05-05 15:49 | 49.91316 | 9.30268 | 8837 ft | 297 kts | 354° |
| 2026-05-05 15:50 | 49.93377 | 9.29958 | 8839 ft | 298 kts | 354° |
| 2026-05-05 15:50 | 49.95434 | 9.29646 | 8774 ft | 296 kts | 354° |
| 2026-05-05 15:50 | 49.97423 | 9.29344 | 8569 ft | 283 kts | 354° |
| 2026-05-05 15:50 | 49.99323 | 9.29060 | 8429 ft | 267 kts | 354° |
| 2026-05-05 15:51 | 50.01149 | 9.28794 | 8110 ft | 261 kts | 354° |
| 2026-05-05 15:51 | 50.02951 | 9.28537 | 7768 ft | 259 kts | 354° |
| 2026-05-05 15:51 | 50.04737 | 9.28285 | 7421 ft | 257 kts | 354° |
| 2026-05-05 15:51 | 50.06512 | 9.28040 | 7134 ft | 254 kts | 354° |
| 2026-05-05 15:52 | 50.08272 | 9.27804 | 6874 ft | 253 kts | 354° |
| 2026-05-05 15:52 | 50.10021 | 9.27575 | 6611 ft | 252 kts | 354° |
| 2026-05-05 15:52 | 50.11766 | 9.27351 | 6380 ft | 251 kts | 354° |
| 2026-05-05 15:52 | 50.13501 | 9.27123 | 6129 ft | 249 kts | 351° |
| 2026-05-05 15:53 | 50.15086 | 9.26203 | 5836 ft | 242 kts | 320° |
| 2026-05-05 15:53 | 50.16106 | 9.24208 | 5503 ft | 235 kts | 288° |
| 2026-05-05 15:53 | 50.16475 | 9.21752 | 5144 ft | 233 kts | 276° |
| 2026-05-05 15:53 | 50.16679 | 9.19256 | 4820 ft | 232 kts | 274° |
| 2026-05-05 15:54 | 50.16862 | 9.16762 | 4498 ft | 230 kts | 274° |
| 2026-05-05 15:54 | 50.17014 | 9.14284 | 4170 ft | 229 kts | 266° |
| 2026-05-05 15:54 | 50.16622 | 9.11949 | 3988 ft | 223 kts | 244° |
| 2026-05-05 15:54 | 50.16028 | 9.09706 | 3987 ft | 226 kts | 248° |
| 2026-05-05 15:55 | 50.15480 | 9.07401 | 3990 ft | 227 kts | 249° |
| 2026-05-05 15:55 | 50.14941 | 9.05083 | 3992 ft | 227 kts | 248° |
| 2026-05-05 15:55 | 50.14406 | 9.02782 | 3993 ft | 226 kts | 249° |
| 2026-05-05 15:55 | 50.13867 | 9.00472 | 3994 ft | 227 kts | 248° |
| 2026-05-05 15:56 | 50.13328 | 8.98167 | 3999 ft | 226 kts | 248° |
| 2026-05-05 15:56 | 50.12790 | 8.95866 | 3998 ft | 225 kts | 248° |
| 2026-05-05 15:56 | 50.12251 | 8.93568 | 4000 ft | 227 kts | 248° |
| 2026-05-05 15:56 | 50.11710 | 8.91258 | 3998 ft | 226 kts | 248° |
| 2026-05-05 15:57 | 50.11169 | 8.88956 | 3997 ft | 227 kts | 248° |
| 2026-05-05 15:57 | 50.10626 | 8.86645 | 3988 ft | 227 kts | 248° |
| 2026-05-05 15:57 | 50.10083 | 8.84337 | 3790 ft | 226 kts | 248° |
| 2026-05-05 15:57 | 50.09542 | 8.82037 | 3517 ft | 227 kts | 248° |
| 2026-05-05 15:58 | 50.09181 | 8.80506 | 3321 ft | 229 kts | 248° |
| 2026-05-05 15:58 | 50.08434 | 8.77343 | 2914 ft | 236 kts | 249° |
| 2026-05-05 15:58 | 50.08061 | 8.75762 | 2737 ft | 233 kts | 249° |
| 2026-05-05 15:58 | 50.07510 | 8.73431 | 2390 ft | 222 kts | 250° |
| 2026-05-05 15:59 | 50.06999 | 8.71269 | 2098 ft | 203 kts | 249° |
| 2026-05-05 15:59 | 50.06531 | 8.69296 | 1855 ft | 187 kts | 249° |
| 2026-05-05 15:59 | 50.06098 | 8.67470 | 1632 ft | 171 kts | 249° |
| 2026-05-05 15:59 | 50.05701 | 8.65796 | 1387 ft | 159 kts | 250° |
| 2026-05-05 16:00 | 50.05335 | 8.64257 | 1164 ft | 147 kts | 249° |
| 2026-05-05 16:00 | 50.04985 | 8.62782 | 964 ft | 143 kts | 250° |
| 2026-05-05 16:00 | 50.04645 | 8.61338 | 775 ft | 142 kts | 246° |
| 2026-05-05 16:00 | 50.04309 | 8.59913 | 574 ft | 139 kts | 248° |
| 2026-05-05 16:01 | 50.03975 | 8.58514 | 389 ft | 137 kts | 250° |
| 2026-05-05 16:01 | 50.03669 | 8.57243 | 358 ft | 102 kts | 249° |
| 2026-05-05 16:01 | 50.03487 | 8.56478 | 358 ft | 51 kts | 250° |
| 2026-05-05 16:01 | 50.03438 | 8.56074 | 349 ft | 34 kts | 275° |
| 2026-05-05 16:02 | 50.03463 | 8.55823 | 347 ft | 13 kts | 279° |
| 2026-05-05 16:02 | 50.03470 | 8.55759 | 344 ft | 0 kts | 280° |
| 2026-05-05 16:02 | 50.03476 | 8.55708 | 345 ft | 12 kts | 280° |
| 2026-05-05 16:02 | 50.03493 | 8.55540 | 353 ft | 16 kts | 275° |
| 2026-05-05 16:03 | 50.03465 | 8.55360 | 351 ft | 22 kts | 250° |
| 2026-05-05 16:03 | 50.03403 | 8.55099 | 351 ft | 27 kts | 249° |
| 2026-05-05 16:03 | 50.03337 | 8.54821 | 339 ft | 25 kts | 250° |
| 2026-05-05 16:03 | 50.03282 | 8.54592 | 336 ft | 16 kts | 250° |
| 2026-05-05 16:04 | 50.03324 | 8.54475 | 337 ft | 11 kts | 339° |
| 2026-05-05 16:04 | 50.03377 | 8.54444 | 336 ft | 6 kts | 339° |
| 2026-05-05 16:04 | 50.03387 | 8.54438 | 338 ft | 0 kts | 339° |
| 2026-05-05 16:05 | 50.03402 | 8.54429 | 340 ft | 10 kts | 339° |
| 2026-05-05 16:05 | 50.03495 | 8.54376 | 350 ft | 19 kts | 340° |
| 2026-05-05 16:06 | 50.03613 | 8.54309 | 347 ft | 16 kts | 346° |
| 2026-05-05 16:06 | 50.03685 | 8.54377 | 342 ft | 11 kts | 34° |
| 2026-05-05 16:06 | 50.03753 | 8.54363 | 347 ft | 7 kts | 340° |
| 2026-05-05 16:06 | 50.03764 | 8.54357 | 350 ft | 0 kts | 339° |
| 2026-05-05 16:07 | 50.03765 | 8.54356 | 352 ft | 2 kts | 339° |
| 2026-05-05 16:07 | 50.03799 | 8.54337 | 352 ft | 7 kts | 339° |
| 2026-05-05 16:07 | 50.03857 | 8.54363 | 352 ft | 12 kts | 50° |
| 2026-05-05 16:08 | 50.03896 | 8.54504 | 356 ft | 16 kts | 70° |
| 2026-05-05 16:08 | 50.03935 | 8.54670 | 354 ft | 14 kts | 70° |
| 2026-05-05 16:08 | 50.03926 | 8.54752 | 353 ft | 8 kts | 155° |
| 2026-05-05 16:08 | 50.03876 | 8.54782 | 357 ft | 2 kts | 159° |
| 2026-05-05 16:09 | 50.03863 | 8.54790 | 358 ft | 1 kts | 159° |
| 2026-05-05 16:09 | 50.03862 | 8.54791 | 357 ft | 0 kts | 159° |